Time;durP1;ratioP1;P1;durP2;ratioP2;P2;SDS_P1;SDS_P2;PMS_P1;PMS_P2;Temp;Humidity;BMP_temperature;BMP_pressure;BME280_temperature;BME280_humidity;BME280_pressure;Samples;Min_cycle;Max_cycle;Signal;HPM_P1;HPM_P2
2023/03/07 00:01:07;;;;;;;;;;;6.00;73.00;;;6.40;48.53;97578.84;5043750;27;124443;-72
2023/03/07 00:03:35;;;;;;;;;;;6.00;73.00;;;6.40;48.50;97573.34;5032075;27;114726;-73
2023/03/07 00:06:07;;;;;;;;;;;5.90;73.00;;;6.39;48.57;97568.97;5048326;27;112693;-72
2023/03/07 00:08:34;;;;;;;;;;;5.90;73.00;;;6.38;48.53;97572.84;5053277;27;122368;-72
2023/03/07 00:11:05;;;;;;;;;;;5.90;73.00;;;6.39;48.77;97574.44;5048241;27;124165;-72
2023/03/07 00:13:35;;;;;;;;;;;5.90;73.00;;;6.40;49.32;97570.59;5046790;27;113624;-74
2023/03/07 00:16:11;;;;;;;;;;;5.90;73.00;;;6.43;48.66;97577.38;5044984;27;113533;-72
2023/03/07 00:18:38;;;;;;;;;;;5.90;73.00;;;6.43;49.22;97582.88;5048804;27;123789;-72
2023/03/07 00:21:07;;;;;;;;;;;5.90;73.10;;;6.43;48.78;97571.91;5033124;27;125776;-72
2023/03/07 00:23:34;;;;;;;;;;;6.00;73.10;;;6.43;48.35;97578.19;5048431;27;114903;-72
2023/03/07 00:26:03;;;;;;;;;;;6.00;73.00;;;6.42;48.45;97571.06;5039911;27;114352;-71
2023/03/07 00:28:30;;;;;;;;;;;6.00;73.00;;;6.42;48.71;97565.59;5047369;27;124154;-72
2023/03/07 00:31:02;;;;;;;;;;;6.00;73.00;;;6.43;49.12;97566.41;5045080;27;123902;-72
2023/03/07 00:33:28;;;;;;;;;;;6.00;72.90;;;6.40;49.12;97578.84;5040072;27;114513;-71
2023/03/07 00:36:16;;;;;;;;;;;6.00;72.90;;;6.42;48.17;97571.06;5042361;27;113944;-72
2023/03/07 00:38:44;;;;;;;;;;;6.00;73.00;;;6.41;48.75;97567.53;5042954;27;124303;-72
2023/03/07 00:41:13;;;;;;;;;;;6.00;73.00;;;6.40;48.47;97560.44;5027032;28;124242;-71
2023/03/07 00:43:40;;;;;;;;;;;6.00;72.90;;;6.40;48.52;97562.38;5027476;28;115983;-73
2023/03/07 00:46:07;;;;;;;;;;;5.90;72.90;;;6.40;49.01;97559.63;5027445;28;115015;-71
2023/03/07 00:48:36;;;;;;;;;;;5.90;72.80;;;6.38;49.01;97543.47;5009335;28;124494;-71
2023/03/07 00:51:03;;;;;;;;;;;5.90;72.70;;;6.37;48.61;97530.88;5029018;28;123962;-72
2023/03/07 00:53:30;;;;;;;;;;;5.90;72.70;;;6.39;49.01;97527.81;5009427;28;114855;-72
2023/03/07 00:55:57;;;;;;;;;;;5.90;72.70;;;6.41;48.37;97536.53;5009792;28;113634;-71
2023/03/07 00:58:25;;;;;;;;;;;6.00;72.80;;;6.41;48.29;97531.06;5023502;28;124989;-71
2023/03/07 01:00:52;;;;;;;;;;;5.90;72.70;;;6.39;48.50;97527.81;5028734;28;123863;-73
2023/03/07 01:03:19;;;;;;;;;;;5.90;73.30;;;6.35;48.47;97532.34;5008364;28;114203;-71
2023/03/07 01:05:46;;;;;;;;;;;5.90;72.50;;;6.29;48.83;97528.13;5000416;28;113710;-72
2023/03/07 01:08:12;;;;;;;;;;;5.90;72.50;;;6.24;48.53;97523.56;5027583;28;124801;-71
2023/03/07 01:10:39;;;;;;;;;;;5.80;72.40;;;6.22;48.43;97519.53;5023729;28;124643;-72
2023/03/07 01:13:05;;;;;;;;;;;5.80;72.40;;;6.15;49.04;97517.22;5044021;27;114550;-71
2023/03/07 01:15:32;;;;;;;;;;;5.70;72.30;;;6.13;48.64;97523.03;5044763;27;113661;-72
2023/03/07 01:17:58;;;;;;;;;;;5.70;72.30;;;6.12;48.37;97524.13;5048564;27;124344;-72
2023/03/07 01:20:24;;;;;;;;;;;5.70;72.30;;;6.10;48.28;97523.66;5049549;27;124315;-72
2023/03/07 01:22:51;;;;;;;;;;;5.70;72.30;;;6.10;48.49;97526.41;5053790;27;114558;-72
2023/03/07 01:25:17;;;;;;;;;;;5.70;72.30;;;6.09;48.93;97532.19;5063293;27;113667;-72
2023/03/07 01:27:43;;;;;;;;;;;5.70;72.20;;;6.07;48.38;97520.72;5052786;27;124230;-71
2023/03/07 01:30:10;;;;;;;;;;;5.70;72.10;;;6.06;48.66;97527.34;5054015;27;124346;-72
2023/03/07 01:32:36;;;;;;;;;;;5.60;72.00;;;6.05;48.38;97518.31;5052798;27;115017;-72
2023/03/07 01:35:04;;;;;;;;;;;5.60;72.10;;;6.07;48.36;97521.56;5040703;27;116518;-72
2023/03/07 01:37:30;;;;;;;;;;;5.70;72.10;;;6.06;48.00;97511.69;5052038;27;123642;-72
2023/03/07 01:39:56;;;;;;;;;;;5.60;71.90;;;6.06;48.31;97514.44;5050246;27;124647;-72
2023/03/07 01:42:22;;;;;;;;;;;5.70;71.90;;;6.07;48.04;97510.59;5043663;27;114366;-72
2023/03/07 01:45:20;;;;;;;;;;;5.70;71.90;;;6.11;48.49;97508.81;5050836;27;113962;-73
2023/03/07 01:47:46;;;;;;;;;;;5.70;71.90;;;6.08;48.30;97509.44;5018913;27;124237;-75
2023/03/07 01:50:15;;;;;;;;;;;5.70;71.80;;;6.09;47.96;97516.53;5058833;27;124447;-74
2023/03/07 01:52:45;;;;;;;;;;;5.70;71.60;;;6.10;48.21;97501.72;5053693;27;114470;-73
2023/03/07 01:55:15;;;;;;;;;;;5.70;71.60;;;6.11;47.88;97503.34;5037647;27;111984;-73
2023/03/07 01:57:42;;;;;;;;;;;5.70;71.60;;;6.14;47.93;97499.16;5051756;27;123483;-72
2023/03/07 02:00:46;;;;;;;;;;;5.70;71.40;;;6.15;47.93;97500.75;5050229;27;123937;-72
2023/03/07 02:03:47;;;;;;;;;;;5.70;71.30;;;6.09;47.23;97499.28;5051355;27;114263;-71
2023/03/07 02:06:13;;;;;;;;;;;5.70;71.00;;;6.03;47.92;97490.41;5031990;27;113845;-72
2023/03/07 02:08:41;;;;;;;;;;;5.60;70.80;;;6.01;47.91;97492.63;5042882;27;124078;-72
2023/03/07 02:11:08;;;;;;;;;;;5.60;70.80;;;6.03;47.42;97493.13;5047683;27;124083;-72
2023/03/07 02:13:34;;;;;;;;;;;5.70;70.90;;;6.01;47.23;97484.41;5033981;27;114257;-71
2023/03/07 02:16:01;;;;;;;;;;;5.60;70.70;;;6.01;47.06;97491.84;5041439;27;113605;-72
2023/03/07 02:18:31;;;;;;;;;;;5.60;70.70;;;6.01;47.45;97489.91;5044589;27;124574;-71
2023/03/07 02:21:08;;;;;;;;;;;5.60;70.70;;;6.03;47.39;97484.91;5049353;27;123979;-71
2023/03/07 02:23:55;;;;;;;;;;;5.60;70.70;;;6.06;47.46;97480.72;5050353;27;115517;-72
2023/03/07 02:26:27;;;;;;;;;;;5.60;70.70;;;6.03;47.08;97490.41;5050879;27;114750;-72
2023/03/07 02:28:54;;;;;;;;;;;5.60;70.50;;;6.03;47.37;97481.38;5047566;27;124067;-72
2023/03/07 02:31:20;;;;;;;;;;;5.60;70.50;;;6.02;47.38;97475.09;5045701;27;123599;-73
2023/03/07 02:33:47;;;;;;;;;;;5.60;70.40;;;6.02;47.06;97477.00;5041197;27;113353;-72
2023/03/07 02:36:26;;;;;;;;;;;5.60;70.40;;;6.04;47.37;97477.50;5051075;27;113738;-72
2023/03/07 02:38:54;;;;;;;;;;;5.60;70.30;;;6.01;47.37;97475.38;5055441;27;122403;-73
2023/03/07 02:41:24;;;;;;;;;;;5.60;70.30;;;5.99;46.86;97470.19;5050653;27;123771;-72
2023/03/07 02:43:50;;;;;;;;;;;5.60;70.30;;;5.97;46.89;97472.47;5036366;27;114311;-72
2023/03/07 02:46:16;;;;;;;;;;;5.60;70.30;;;5.96;47.31;97454.38;5046031;27;113551;-72
2023/03/07 02:48:43;;;;;;;;;;;5.50;70.20;;;5.95;47.31;97453.59;5048633;27;124435;-72
2023/03/07 02:51:10;;;;;;;;;;;5.50;70.30;;;5.94;47.17;97448.44;5042815;27;124598;-72
2023/03/07 02:53:37;;;;;;;;;;;5.80;70.50;;;5.96;47.08;97451.66;5049017;27;113624;-71
2023/03/07 02:56:03;;;;;;;;;;;5.50;70.40;;;6.00;47.54;97443.63;5031318;27;112454;-72
2023/03/07 02:58:30;;;;;;;;;;;5.60;70.60;;;6.01;47.82;97446.03;5058660;27;123580;-72
2023/03/07 03:00:56;;;;;;;;;;;5.60;70.60;;;6.02;47.15;97441.34;5048401;27;124205;-72
2023/03/07 03:03:22;;;;;;;;;;;5.60;70.40;;;6.02;47.48;97439.44;5040507;27;114310;-72
2023/03/07 03:05:48;;;;;;;;;;;5.60;70.40;;;6.02;47.70;97439.44;5045647;27;113740;-72
2023/03/07 03:08:15;;;;;;;;;;;5.60;71.10;;;6.02;46.76;97442.19;5044824;27;124096;-72
2023/03/07 03:10:41;;;;;;;;;;;5.60;70.50;;;6.03;47.34;97442.97;5061178;27;125113;-72
2023/03/07 03:13:07;;;;;;;;;;;5.60;70.40;;;6.03;47.75;97438.31;5039567;27;115133;-72
2023/03/07 03:15:34;;;;;;;;;;;5.60;70.50;;;6.04;47.41;97439.91;5047539;27;114606;-71
2023/03/07 03:18:00;;;;;;;;;;;5.60;70.60;;;6.07;47.65;97443.94;5042534;27;124467;-72
2023/03/07 03:20:26;;;;;;;;;;;5.60;70.60;;;6.09;47.73;97442.50;5038291;27;123875;-72
2023/03/07 03:22:53;;;;;;;;;;;5.60;70.60;;;6.10;47.18;97435.91;5046494;27;114551;-72
2023/03/07 03:25:22;;;;;;;;;;;5.60;70.70;;;6.09;47.73;97434.28;5054997;27;114521;-71
2023/03/07 03:27:49;;;;;;;;;;;5.60;70.50;;;6.07;46.99;97435.72;5046338;27;124690;-71
2023/03/07 03:30:15;;;;;;;;;;;5.60;70.50;;;6.03;47.08;97432.81;5043913;27;123974;-71
2023/03/07 03:32:42;;;;;;;;;;;5.60;70.50;;;5.99;46.98;97434.56;5048714;27;114624;-72
2023/03/07 03:35:08;;;;;;;;;;;5.60;70.50;;;5.95;47.96;97441.81;5047951;27;113743;-72
2023/03/07 03:37:35;;;;;;;;;;;3.70;68.90;;;5.90;47.85;97434.50;5050441;27;124358;-72
2023/03/07 03:40:03;;;;;;;;;;;5.50;70.60;;;5.84;47.61;97448.66;5043026;27;123815;-71
2023/03/07 03:42:29;;;;;;;;;;;5.40;70.60;;;5.80;48.18;97428.47;5050310;27;113319;-72
2023/03/07 03:44:56;;;;;;;;;;;5.40;70.70;;;5.76;47.65;97436.53;5043876;27;113653;-72
2023/03/07 03:47:22;;;;;;;;;;;5.40;70.80;;;5.74;48.17;97441.53;5049649;27;123076;-72
2023/03/07 03:49:48;;;;;;;;;;;5.30;70.80;;;5.71;48.18;97431.19;5044103;27;123935;-72
2023/03/07 03:52:14;;;;;;;;;;;5.30;70.90;;;5.70;48.23;97433.13;5050466;27;113322;-72
2023/03/07 03:54:41;;;;;;;;;;;5.30;71.10;;;5.69;48.25;97415.06;5047865;27;113821;-72
2023/03/07 03:57:07;;;;;;;;;;;5.30;71.20;;;5.68;48.11;97421.66;5048645;27;124335;-73
2023/03/07 03:59:33;;;;;;;;;;;5.30;71.20;;;5.67;48.06;97419.22;5039429;27;124092;-71
2023/03/07 04:01:59;;;;;;;;;;;5.30;71.30;;;5.65;48.85;97419.56;5047795;27;115359;-75
2023/03/07 04:04:26;;;;;;;;;;;5.20;71.20;;;5.63;48.49;97419.06;5044036;27;114689;-72
2023/03/07 04:06:52;;;;;;;;;;;5.20;71.30;;;5.61;48.14;97415.81;5047555;27;124210;-75
2023/03/07 04:09:18;;;;;;;;;;;5.20;71.40;;;5.60;48.24;97408.72;5048435;27;123803;-75
2023/03/07 04:11:44;;;;;;;;;;;5.20;71.50;;;5.60;48.60;97418.88;5049713;27;114405;-72
2023/03/07 04:14:11;;;;;;;;;;;5.20;71.50;;;5.60;48.70;97414.22;5052208;27;114195;-72
2023/03/07 04:16:37;;;;;;;;;;;5.20;71.60;;;5.60;48.82;97416.94;5043372;27;124063;-72
2023/03/07 04:19:03;;;;;;;;;;;5.20;71.60;;;5.61;48.39;97399.38;5048681;27;123723;-72
2023/03/07 04:21:29;;;;;;;;;;;5.20;71.70;;;5.63;48.84;97401.81;5045732;27;114318;-72
2023/03/07 04:23:57;;;;;;;;;;;5.20;71.70;;;5.67;48.90;97409.09;5050915;27;113549;-72
2023/03/07 04:26:23;;;;;;;;;;;5.20;71.70;;;5.68;48.33;97402.47;5050183;27;124223;-72
2023/03/07 04:28:49;;;;;;;;;;;5.20;71.60;;;5.69;48.52;97406.03;5041092;27;123824;-72
2023/03/07 04:31:18;;;;;;;;;;;5.30;71.70;;;5.71;48.17;97406.53;5055224;27;114981;-74
2023/03/07 04:33:45;;;;;;;;;;;5.30;71.70;;;5.71;48.11;97399.09;5050771;27;114018;-72
2023/03/07 04:36:12;;;;;;;;;;;5.30;71.70;;;5.68;48.14;97405.22;5044594;27;123884;-71
2023/03/07 04:38:40;;;;;;;;;;;5.30;71.80;;;5.68;48.81;97404.41;5049736;27;124047;-72
2023/03/07 04:41:08;;;;;;;;;;;5.30;71.70;;;5.67;47.85;97400.03;5052578;27;114466;-72
2023/03/07 04:43:34;;;;;;;;;;;5.30;71.80;;;5.65;48.10;97389.41;5051086;27;114419;-72
2023/03/07 04:46:00;;;;;;;;;;;5.30;71.80;;;5.65;48.87;97388.63;5039103;27;124109;-72
2023/03/07 04:48:27;;;;;;;;;;;5.20;71.70;;;5.66;48.08;97396.50;5049808;27;124276;-72
2023/03/07 04:50:53;;;;;;;;;;;5.20;71.80;;;5.67;48.81;97389.09;5050830;27;115400;-72
2023/03/07 04:53:19;;;;;;;;;;;5.20;71.80;;;5.69;48.56;97395.06;5049608;27;114887;-71
2023/03/07 04:55:46;;;;;;;;;;;5.30;71.80;;;5.69;48.49;97387.66;5052262;27;124772;-72
2023/03/07 04:58:13;;;;;;;;;;;5.30;71.70;;;5.72;48.80;97388.94;5038792;27;123523;-73
2023/03/07 05:00:43;;;;;;;;;;;5.30;71.70;;;5.72;47.79;97378.81;5055754;27;115070;-72
2023/03/07 05:03:10;;;;;;;;;;;5.30;71.70;;;5.74;48.07;97398.47;5055094;27;113691;-72
2023/03/07 05:06:14;;;;;;;;;;;5.30;72.00;;;5.71;48.33;97385.41;5056467;27;123359;-73
2023/03/07 05:08:41;;;;;;;;;;;5.30;71.70;;;5.65;48.26;97383.94;5054372;27;127796;-72
2023/03/07 05:11:07;;;;;;;;;;;5.30;71.60;;;5.64;48.69;97385.06;5050908;27;114277;-71
2023/03/07 05:13:33;;;;;;;;;;;5.30;71.70;;;5.65;48.67;97386.69;5049719;27;112912;-72
2023/03/07 05:16:00;;;;;;;;;;;5.30;71.70;;;5.66;48.27;97373.78;5052929;27;124380;-72
2023/03/07 05:18:27;;;;;;;;;;;5.30;71.70;;;5.66;48.66;97374.59;5049951;27;124573;-71
2023/03/07 05:20:53;;;;;;;;;;;5.30;71.80;;;5.69;48.29;97379.44;5052938;27;113921;-71
2023/03/07 05:23:20;;;;;;;;;;;5.30;71.80;;;5.68;48.29;97377.81;5049030;27;114153;-73
2023/03/07 05:25:46;;;;;;;;;;;5.30;71.80;;;5.70;48.51;97364.63;5055736;27;124535;-72
2023/03/07 05:28:15;;;;;;;;;;;5.30;71.80;;;5.70;48.64;97370.09;5052643;27;123927;-72
2023/03/07 05:30:43;;;;;;;;;;;5.30;71.80;;;5.68;48.17;97364.13;5028506;28;114036;-72
2023/03/07 05:33:10;;;;;;;;;;;5.30;71.70;;;5.67;48.91;97359.78;5052966;27;113710;-72
2023/03/07 05:35:37;;;;;;;;;;;5.30;71.70;;;5.68;48.53;97377.03;5051432;27;122667;-72
2023/03/07 05:38:04;;;;;;;;;;;5.30;71.80;;;5.67;48.76;97365.25;5053133;27;123960;-71
2023/03/07 05:40:30;;;;;;;;;;;5.30;71.80;;;5.68;48.30;97372.34;5050795;27;115584;-72
2023/03/07 05:42:56;;;;;;;;;;;5.30;71.80;;;5.68;47.97;97369.59;5048934;27;114729;-72
2023/03/07 05:45:23;;;;;;;;;;;5.20;71.70;;;5.67;48.57;97370.75;5050725;27;124744;-72
2023/03/07 05:47:49;;;;;;;;;;;5.30;71.80;;;5.67;48.32;97365.25;5049864;27;123940;-71
2023/03/07 05:50:17;;;;;;;;;;;5.30;71.80;;;5.68;48.00;97363.31;5053565;27;114760;-72
2023/03/07 05:52:44;;;;;;;;;;;5.30;71.70;;;5.67;48.44;97365.25;5044878;27;113921;-72
2023/03/07 05:55:10;;;;;;;;;;;5.30;71.70;;;5.67;48.62;97354.28;5056229;27;123805;-72
2023/03/07 05:57:36;;;;;;;;;;;5.30;71.70;;;5.66;48.32;97360.88;5052277;27;123917;-72
2023/03/07 06:00:05;;;;;;;;;;;5.20;71.50;;;5.64;47.65;97365.06;5053576;27;114670;-72
2023/03/07 06:02:31;;;;;;;;;;;5.20;71.50;;;5.64;48.05;97354.09;5052862;27;113736;-72
2023/03/07 06:04:57;;;;;;;;;;;5.20;71.50;;;5.64;48.98;97360.41;5049843;27;124232;-72
2023/03/07 06:07:24;;;;;;;;;;;5.20;71.40;;;5.63;48.74;97353.28;5041638;27;123712;-72
2023/03/07 06:09:50;;;;;;;;;;;5.20;71.30;;;5.62;48.04;97354.44;5049131;27;114580;-71
2023/03/07 06:12:16;;;;;;;;;;;5.20;71.30;;;5.61;47.78;97347.31;5042863;27;114179;-71
2023/03/07 06:14:42;;;;;;;;;;;5.20;71.20;;;5.62;47.72;97354.44;5035726;27;124076;-72
2023/03/07 06:17:09;;;;;;;;;;;5.20;71.00;;;5.60;47.79;97342.97;5037566;27;123437;-73
2023/03/07 06:19:35;;;;;;;;;;;5.20;71.10;;;5.61;48.28;97341.84;5035455;27;113903;-72
2023/03/07 06:22:01;;;;;;;;;;;7.50;73.10;;;5.63;48.50;97339.59;5032776;27;114447;-71
2023/03/07 06:24:28;;;;;;;;;;;5.20;71.00;;;5.66;48.15;97340.91;5035948;27;124582;-73
2023/03/07 06:26:54;;;;;;;;;;;5.30;71.70;;;5.68;47.86;97350.41;5036633;27;123088;-72
2023/03/07 06:29:20;;;;;;;;;;;5.30;70.90;;;5.67;47.52;97346.06;5040024;27;114574;-72
2023/03/07 06:31:47;;;;;;;;;;;5.30;70.60;;;5.65;47.65;97342.03;5036361;27;114692;-72
2023/03/07 06:34:13;;;;;;;;;;;5.20;70.50;;;5.67;47.28;97339.75;5041967;27;123805;-72
2023/03/07 06:36:39;;;;;;;;;;;5.20;70.40;;;5.65;47.38;97345.56;5032686;27;123812;-72
2023/03/07 06:39:06;;;;;;;;;;;5.20;70.40;;;5.66;47.30;97358.16;5056910;27;114704;-72
2023/03/07 06:41:32;;;;;;;;;;;5.20;70.40;;;5.66;47.35;97357.34;5040943;27;113983;-72
2023/03/07 06:43:58;;;;;;;;;;;5.20;70.30;;;5.63;47.78;97353.28;5044580;27;123089;-70
2023/03/07 06:46:25;;;;;;;;;;;5.20;70.50;;;5.62;47.63;97351.69;5049033;27;124094;-72
2023/03/07 06:48:51;;;;;;;;;;;5.20;70.40;;;5.61;47.53;97350.06;5049608;27;115093;-72
2023/03/07 06:51:20;;;;;;;;;;;5.20;71.00;;;5.63;47.29;97344.28;5051315;27;113081;-71
2023/03/07 06:53:46;;;;;;;;;;;5.20;70.40;;;5.63;47.71;97347.81;5037091;27;124778;-72
2023/03/07 06:56:12;;;;;;;;;;;5.20;70.40;;;5.65;47.48;97351.06;5044543;27;124159;-73
2023/03/07 06:58:39;;;;;;;;;;;5.30;70.40;;;5.67;46.85;97357.03;5050366;27;113254;-73
2023/03/07 07:01:05;;;;;;;;;;;5.30;70.40;;;5.70;47.66;97358.34;5042011;27;114176;-72
2023/03/07 07:03:32;;;;;;;;;;;5.30;70.40;;;5.73;47.26;97361.25;5038476;27;124085;-72
2023/03/07 07:05:59;;;;;;;;;;;5.30;70.40;;;5.79;48.00;97352.88;5048198;27;124244;-72
2023/03/07 07:08:25;;;;;;;;;;;5.30;70.40;;;5.82;47.58;97349.50;5048893;27;114693;-72
2023/03/07 07:10:52;;;;;;;;;;;5.30;70.30;;;5.83;47.86;97346.47;5051672;27;113222;-71
2023/03/07 07:13:18;;;;;;;;;;;5.40;70.40;;;5.86;46.90;97347.75;5047956;27;124162;-72
2023/03/07 07:15:44;;;;;;;;;;;5.40;70.30;;;5.89;47.41;97349.88;5037634;27;123781;-71
2023/03/07 07:18:12;;;;;;;;;;;5.40;70.30;;;5.91;47.24;97344.84;5058655;27;115763;-71
2023/03/07 07:20:39;;;;;;;;;;;5.40;70.30;;;5.93;47.04;97350.81;5049340;27;114745;-72
2023/03/07 07:23:05;;;;;;;;;;;5.50;70.30;;;5.95;47.80;97351.34;5045933;27;124467;-72
2023/03/07 07:25:31;;;;;;;;;;;5.50;70.30;;;5.97;47.20;97343.63;5047614;27;124384;-72
2023/03/07 07:28:00;;;;;;;;;;;5.50;70.40;;;6.02;46.92;97340.75;5041722;27;114604;-72
2023/03/07 07:30:26;;;;;;;;;;;5.60;70.50;;;6.06;47.16;97338.97;5042483;27;113117;-72
2023/03/07 07:32:54;;;;;;;;;;;5.60;70.40;;;6.11;46.69;97341.56;5042559;27;125076;-73
2023/03/07 07:35:21;;;;;;;;;;;5.70;70.40;;;6.16;47.27;97349.63;5048731;27;124640;-73
2023/03/07 07:37:47;;;;;;;;;;;6.90;71.30;;;6.18;46.66;97347.38;5032488;27;112977;-73
2023/03/07 07:40:14;;;;;;;;;;;5.70;70.10;;;6.21;46.61;97343.19;5032661;27;112723;-72
2023/03/07 07:42:42;;;;;;;;;;;5.70;69.90;;;6.24;46.89;97341.75;5047950;27;123289;-72
2023/03/07 07:45:09;;;;;;;;;;;5.80;69.90;;;6.26;46.73;97342.22;5048688;27;124139;-72
2023/03/07 07:47:35;;;;;;;;;;;5.80;69.90;;;6.29;46.83;97347.09;5045449;27;114823;-72
2023/03/07 07:50:01;;;;;;;;;;;5.80;69.80;;;6.32;46.51;97347.25;5043969;27;113867;-73
2023/03/07 07:52:27;;;;;;;;;;;5.90;69.60;;;6.35;46.94;97343.88;5046663;27;124139;-73
2023/03/07 07:54:54;;;;;;;;;;;5.90;69.70;;;6.39;46.03;97347.59;5050862;27;123267;-71
2023/03/07 07:57:20;;;;;;;;;;;6.90;70.50;;;6.43;46.04;97347.75;5009202;27;113313;-73
2023/03/07 07:59:46;;;;;;;;;;;5.90;69.60;;;6.46;46.73;97341.63;5019818;27;114293;-71
2023/03/07 08:02:13;;;;;;;;;;;6.00;69.60;;;6.52;46.67;97334.03;5008035;27;123841;-72
2023/03/07 08:04:39;;;;;;;;;;;6.00;69.50;;;6.56;46.29;97332.28;5025075;27;123942;-73
2023/03/07 08:07:06;;;;;;;;;;;6.10;69.40;;;6.61;45.87;97338.41;5021268;27;116313;-72
2023/03/07 08:09:34;;;;;;;;;;;6.10;69.40;;;6.66;46.50;97337.41;5014481;28;114773;-72
2023/03/07 08:12:00;;;;;;;;;;;6.20;69.50;;;6.69;46.05;97342.28;5022393;28;123700;-71
2023/03/07 08:14:26;;;;;;;;;;;6.20;69.10;;;6.71;45.69;97326.28;5023909;28;124013;-71
2023/03/07 08:16:52;;;;;;;;;;;6.20;69.10;;;6.74;45.72;97325.63;5013682;28;114331;-72
2023/03/07 08:19:19;;;;;;;;;;;6.30;69.80;;;6.78;45.64;97328.56;5018845;27;113647;-71
2023/03/07 08:21:45;;;;;;;;;;;6.30;69.00;;;6.80;45.69;97331.78;5021996;27;124220;-71
2023/03/07 08:24:11;;;;;;;;;;;6.30;68.80;;;6.83;46.01;97328.38;5019631;28;124202;-71
2023/03/07 08:26:37;;;;;;;;;;;6.40;68.90;;;6.86;45.71;97322.25;5021459;27;114616;-72
2023/03/07 08:29:05;;;;;;;;;;;6.40;69.50;;;6.87;45.46;97329.34;5025845;28;112630;-71
2023/03/07 08:31:31;;;;;;;;;;;6.40;68.70;;;6.92;45.34;97331.91;5050202;27;124292;-71
2023/03/07 08:33:57;;;;;;;;;;;6.40;68.70;;;6.95;45.55;97322.22;5044151;27;122967;-71
2023/03/07 08:36:24;;;;;;;;;;;6.40;68.50;;;6.99;45.53;97332.25;5033503;27;114541;-71
2023/03/07 08:38:51;;;;;;;;;;;6.50;68.60;;;7.01;44.85;97329.16;5047829;27;113346;-72
2023/03/07 08:41:20;;;;;;;;;;;6.50;68.40;;;7.02;45.29;97312.38;5041888;27;124256;-70
2023/03/07 08:43:46;;;;;;;;;;;6.60;68.60;;;7.10;45.37;97318.97;5044070;27;123959;-70
2023/03/07 08:46:13;;;;;;;;;;;6.60;68.50;;;7.14;45.41;97317.19;5046457;27;114446;-71
2023/03/07 08:48:39;;;;;;;;;;;6.70;68.50;;;7.20;44.82;97321.38;5044407;27;114057;-72
2023/03/07 08:51:07;;;;;;;;;;;6.70;68.20;;;7.24;44.74;97321.53;5050432;27;125037;-73
2023/03/07 08:53:34;;;;;;;;;;;6.70;68.10;;;7.27;45.08;97310.69;5049955;27;124120;-72
2023/03/07 08:56:04;;;;;;;;;;;6.70;67.90;;;7.32;44.49;97311.66;5050667;27;114544;-72
2023/03/07 08:58:31;;;;;;;;;;;6.80;67.80;;;7.34;44.21;97309.41;5048208;27;114551;-71
2023/03/07 09:00:57;;;;;;;;;;;6.80;67.20;;;7.37;44.29;97308.75;5058720;27;124148;-72
2023/03/07 09:03:23;;;;;;;;;;;6.90;66.80;;;7.38;43.86;97321.34;5044654;27;124061;-72
2023/03/07 09:05:50;;;;;;;;;;;6.90;66.40;;;7.38;43.90;97307.59;5047773;27;114356;-72
2023/03/07 09:08:16;;;;;;;;;;;6.90;66.20;;;7.38;43.41;97300.16;5048399;27;113833;-71
2023/03/07 09:10:42;;;;;;;;;;;6.90;66.20;;;7.42;43.57;97306.63;5043188;27;123694;-71
2023/03/07 09:13:09;;;;;;;;;;;6.90;66.10;;;7.45;43.60;97299.66;5052153;27;123488;-72
2023/03/07 09:15:39;;;;;;;;;;;6.90;65.90;;;7.47;43.06;97303.69;5050202;27;114476;-73
2023/03/07 09:18:06;;;;;;;;;;;7.00;65.80;;;7.50;43.24;97308.53;5049280;27;114955;-71
2023/03/07 09:20:33;;;;;;;;;;;7.00;65.30;;;7.50;42.27;97300.28;5049550;27;124197;-75
2023/03/07 09:22:59;;;;;;;;;;;7.00;64.40;;;7.50;42.41;97300.28;5041393;27;123859;-73
2023/03/07 09:25:26;;;;;;;;;;;7.10;64.40;;;7.49;42.27;97304.16;5052664;27;114356;-71
2023/03/07 09:27:53;;;;;;;;;;;7.10;64.20;;;7.52;42.32;97289.78;5042476;27;114065;-75
2023/03/07 09:30:21;;;;;;;;;;;7.10;64.20;;;7.55;42.21;97292.97;5035281;27;123642;-73
2023/03/07 09:32:48;;;;;;;;;;;7.10;64.00;;;7.58;42.00;97306.09;5052899;27;123916;-73
2023/03/07 09:35:15;;;;;;;;;;;7.10;63.40;;;7.60;41.55;97290.03;5050477;27;114610;-71
2023/03/07 09:37:42;;;;;;;;;;;9.00;64.40;;;7.59;41.56;97296.69;5045208;27;114304;-74
2023/03/07 09:40:22;;;;;;;;;;;7.10;62.80;;;7.61;41.72;97303.47;5049879;27;124644;-71
2023/03/07 09:42:54;;;;;;;;;;;7.20;62.80;;;7.59;41.35;97296.69;5051131;27;123285;-71
2023/03/07 09:45:59;;;;;;;;;;;7.20;63.00;;;7.60;41.36;97296.34;5035579;27;114648;-72
2023/03/07 09:48:54;;;;;;;;;;;7.20;62.90;;;7.61;41.84;97291.69;5036186;27;113139;-72
2023/03/07 09:51:36;;;;;;;;;;;7.20;62.90;;;7.61;41.34;97291.69;5041828;27;124485;-70
2023/03/07 09:54:11;;;;;;;;;;;7.20;62.50;;;7.61;41.20;97291.69;5049927;27;124086;-70
2023/03/07 09:56:56;;;;;;;;;;;7.20;62.10;;;7.58;40.93;97290.41;5050485;27;114580;-71
2023/03/07 09:59:41;;;;;;;;;;;7.20;61.70;;;7.54;40.64;97281.19;5026959;27;112919;-72
2023/03/07 10:02:22;;;;;;;;;;;7.20;61.80;;;7.55;40.79;97284.72;5046953;27;125568;-72
2023/03/07 10:04:55;;;;;;;;;;;7.20;61.70;;;7.55;41.08;97284.72;5043309;27;124307;-73
2023/03/07 10:07:24;;;;;;;;;;;7.20;61.80;;;7.58;40.48;97292.34;5060735;27;114417;-71
2023/03/07 10:09:55;;;;;;;;;;;7.20;61.80;;;7.58;40.67;97286.84;5042445;27;113743;-73
2023/03/07 10:12:55;;;;;;;;;;;7.20;61.20;;;7.52;40.48;97280.69;5045215;27;124842;-72
2023/03/07 10:15:34;;;;;;;;;;;7.10;60.70;;;7.47;40.64;97297.41;5046377;27;123977;-72
2023/03/07 10:18:24;;;;;;;;;;;7.10;60.90;;;7.43;40.60;97302.72;5044428;27;114600;-71
2023/03/07 10:21:12;;;;;;;;;;;7.00;60.60;;;7.40;40.37;97277.84;5048148;27;113343;-72
2023/03/07 10:23:50;;;;;;;;;;;7.00;60.60;;;7.38;40.26;97283.66;5043409;27;124168;-72
2023/03/07 10:26:32;;;;;;;;;;;7.00;60.40;;;7.37;40.30;97273.81;5041410;27;123390;-71
2023/03/07 10:29:01;;;;;;;;;;;7.00;60.40;;;7.34;40.51;97277.22;5056808;27;114970;-71
2023/03/07 10:31:38;;;;;;;;;;;6.90;60.40;;;7.33;40.44;97269.31;5048608;27;113657;-72
2023/03/07 10:34:13;;;;;;;;;;;6.90;60.30;;;7.32;40.39;97273.19;5045054;27;122329;-71
2023/03/07 10:36:43;;;;;;;;;;;6.90;60.40;;;7.30;40.36;97257.03;5064013;27;123885;-71
2023/03/07 10:39:25;;;;;;;;;;;6.90;60.60;;;7.36;40.27;97271.38;5033709;27;114666;-72
2023/03/07 10:41:52;;;;;;;;;;;6.90;60.50;;;7.35;40.27;97267.03;5047433;27;115029;-72
2023/03/07 10:44:19;;;;;;;;;;;6.90;60.00;;;7.33;39.87;97272.84;5036066;27;124539;-71
2023/03/07 10:46:46;;;;;;;;;;;6.90;59.70;;;7.32;39.40;97257.53;5062783;27;123725;-75
2023/03/07 10:49:17;;;;;;;;;;;6.90;59.30;;;7.27;39.91;97261.25;5043620;27;113725;-72
2023/03/07 10:52:08;;;;;;;;;;;6.90;59.40;;;7.27;39.94;97258.50;5050859;27;114215;-72
2023/03/07 10:54:36;;;;;;;;;;;6.90;59.60;;;7.26;39.96;97243.16;5045588;27;124112;-71
2023/03/07 10:57:07;;;;;;;;;;;6.80;59.70;;;7.31;40.22;97253.16;5050503;27;123932;-72
2023/03/07 10:59:34;;;;;;;;;;;6.90;60.00;;;7.35;40.20;97245.88;5046511;27;114619;-72
2023/03/07 11:02:02;;;;;;;;;;;6.90;60.00;;;7.41;39.54;97243.75;5043331;27;113305;-72
2023/03/07 11:04:44;;;;;;;;;;;7.00;60.00;;;7.44;39.15;97256.81;5042922;27;124551;-72
2023/03/07 11:07:26;;;;;;;;;;;7.00;59.10;;;7.39;39.05;97251.50;5050731;27;124559;-71
2023/03/07 11:09:53;;;;;;;;;;;7.00;58.90;;;7.36;38.99;97249.41;5047848;27;115063;-72
2023/03/07 11:12:22;;;;;;;;;;;6.90;58.80;;;7.33;39.28;97252.81;5036950;27;113000;-73
2023/03/07 11:14:58;;;;;;;;;;;6.90;58.60;;;7.32;39.52;97245.72;5054512;27;123437;-72
2023/03/07 11:17:29;;;;;;;;;;;6.90;58.80;;;7.30;39.18;97235.06;5053244;27;123646;-75
2023/03/07 11:19:56;;;;;;;;;;;6.90;58.70;;;7.32;38.90;97235.53;5064663;27;115240;-72
2023/03/07 11:22:35;;;;;;;;;;;6.90;58.50;;;7.29;39.31;97225.22;5035094;27;113036;-72
2023/03/07 11:25:16;;;;;;;;;;;6.90;58.40;;;7.27;38.82;97243.97;5045171;27;125037;-71
2023/03/07 11:27:49;;;;;;;;;;;6.90;58.20;;;7.24;38.98;97233.63;5034864;27;124190;-72
2023/03/07 11:30:28;;;;;;;;;;;6.80;58.30;;;7.24;39.17;97230.88;5046828;27;115452;-71
2023/03/07 11:33:22;;;;;;;;;;;6.80;58.10;;;7.23;39.00;97223.78;5042474;27;114735;-71